sensor_id;sensor_type;location;lat;lon;timestamp;P1;durP1;ratioP1;P2;durP2;ratioP2
38021;SDS011;23832;43.216;27.946;2022-08-19T00:01:54;14.07;;;7.65;;
38021;SDS011;23832;43.216;27.946;2022-08-19T00:03:58;13.63;;;7.05;;
38021;SDS011;23832;43.216;27.946;2022-08-19T00:06:03;13.32;;;7.32;;
38021;SDS011;23832;43.216;27.946;2022-08-19T00:08:05;13.50;;;7.40;;
38021;SDS011;23832;43.216;27.946;2022-08-19T00:10:08;14.27;;;7.05;;
38021;SDS011;23832;43.216;27.946;2022-08-19T00:12:11;12.77;;;6.65;;
38021;SDS011;23832;43.216;27.946;2022-08-19T00:14:16;12.90;;;6.53;;
38021;SDS011;23832;43.216;27.946;2022-08-19T00:16:19;13.52;;;6.30;;
38021;SDS011;23832;43.216;27.946;2022-08-19T00:18:21;13.20;;;7.38;;
38021;SDS011;23832;43.216;27.946;2022-08-19T00:20:23;12.98;;;6.80;;
38021;SDS011;23832;43.216;27.946;2022-08-19T00:22:27;15.00;;;7.20;;
38021;SDS011;23832;43.216;27.946;2022-08-19T00:24:29;14.02;;;6.82;;
38021;SDS011;23832;43.216;27.946;2022-08-19T00:26:31;12.80;;;7.10;;
38021;SDS011;23832;43.216;27.946;2022-08-19T00:28:33;16.30;;;7.65;;
38021;SDS011;23832;43.216;27.946;2022-08-19T00:30:36;15.27;;;7.20;;
38021;SDS011;23832;43.216;27.946;2022-08-19T00:32:38;14.68;;;7.50;;
38021;SDS011;23832;43.216;27.946;2022-08-19T00:34:41;14.32;;;7.20;;
38021;SDS011;23832;43.216;27.946;2022-08-19T00:36:43;14.43;;;7.03;;
38021;SDS011;23832;43.216;27.946;2022-08-19T00:38:47;14.75;;;7.40;;
38021;SDS011;23832;43.216;27.946;2022-08-19T00:40:51;13.25;;;7.07;;
38021;SDS011;23832;43.216;27.946;2022-08-19T00:42:53;12.52;;;6.32;;
38021;SDS011;23832;43.216;27.946;2022-08-19T00:44:55;13.95;;;7.22;;
38021;SDS011;23832;43.216;27.946;2022-08-19T00:46:58;13.38;;;6.93;;
38021;SDS011;23832;43.216;27.946;2022-08-19T00:49:00;14.23;;;7.10;;
38021;SDS011;23832;43.216;27.946;2022-08-19T00:51:07;14.60;;;7.00;;
38021;SDS011;23832;43.216;27.946;2022-08-19T00:53:10;14.50;;;7.07;;
38021;SDS011;23832;43.216;27.946;2022-08-19T00:55:18;14.27;;;6.65;;
38021;SDS011;23832;43.216;27.946;2022-08-19T00:57:24;13.35;;;6.88;;
38021;SDS011;23832;43.216;27.946;2022-08-19T00:59:31;13.50;;;6.63;;
38021;SDS011;23832;43.216;27.946;2022-08-19T01:01:36;12.65;;;6.35;;
38021;SDS011;23832;43.216;27.946;2022-08-19T01:03:38;14.35;;;7.15;;
38021;SDS011;23832;43.216;27.946;2022-08-19T01:05:41;13.32;;;6.65;;
38021;SDS011;23832;43.216;27.946;2022-08-19T01:07:44;12.95;;;6.72;;
38021;SDS011;23832;43.216;27.946;2022-08-19T01:09:47;14.15;;;7.25;;
38021;SDS011;23832;43.216;27.946;2022-08-19T01:11:51;15.55;;;7.22;;
38021;SDS011;23832;43.216;27.946;2022-08-19T01:13:53;12.65;;;7.00;;
38021;SDS011;23832;43.216;27.946;2022-08-19T01:15:56;15.30;;;6.82;;
38021;SDS011;23832;43.216;27.946;2022-08-19T01:18:09;12.90;;;6.80;;
38021;SDS011;23832;43.216;27.946;2022-08-19T01:20:15;13.75;;;6.47;;
38021;SDS011;23832;43.216;27.946;2022-08-19T01:22:25;15.10;;;6.80;;
38021;SDS011;23832;43.216;27.946;2022-08-19T01:24:31;13.57;;;6.90;;
38021;SDS011;23832;43.216;27.946;2022-08-19T01:26:37;15.35;;;7.00;;
38021;SDS011;23832;43.216;27.946;2022-08-19T01:28:42;14.40;;;7.38;;
38021;SDS011;23832;43.216;27.946;2022-08-19T01:30:45;15.32;;;7.25;;
38021;SDS011;23832;43.216;27.946;2022-08-19T01:32:47;13.38;;;6.60;;
38021;SDS011;23832;43.216;27.946;2022-08-19T01:34:49;17.02;;;7.00;;
38021;SDS011;23832;43.216;27.946;2022-08-19T01:36:51;13.52;;;7.00;;
38021;SDS011;23832;43.216;27.946;2022-08-19T01:38:55;14.20;;;6.78;;
38021;SDS011;23832;43.216;27.946;2022-08-19T01:40:58;14.68;;;6.72;;
38021;SDS011;23832;43.216;27.946;2022-08-19T01:43:00;13.63;;;6.63;;
38021;SDS011;23832;43.216;27.946;2022-08-19T01:45:04;13.43;;;6.30;;
38021;SDS011;23832;43.216;27.946;2022-08-19T01:47:07;16.80;;;7.57;;
38021;SDS011;23832;43.216;27.946;2022-08-19T01:49:10;13.57;;;6.47;;
38021;SDS011;23832;43.216;27.946;2022-08-19T01:51:12;14.00;;;6.38;;
38021;SDS011;23832;43.216;27.946;2022-08-19T01:53:14;13.68;;;6.47;;
38021;SDS011;23832;43.216;27.946;2022-08-19T01:55:19;15.10;;;7.20;;
38021;SDS011;23832;43.216;27.946;2022-08-19T01:57:23;14.13;;;6.85;;
38021;SDS011;23832;43.216;27.946;2022-08-19T01:59:27;17.08;;;7.78;;
38021;SDS011;23832;43.216;27.946;2022-08-19T02:01:30;12.65;;;6.22;;
38021;SDS011;23832;43.216;27.946;2022-08-19T02:03:33;14.13;;;6.95;;
38021;SDS011;23832;43.216;27.946;2022-08-19T02:05:35;15.45;;;7.25;;
38021;SDS011;23832;43.216;27.946;2022-08-19T02:07:38;14.68;;;6.85;;
38021;SDS011;23832;43.216;27.946;2022-08-19T02:09:40;15.23;;;7.22;;
38021;SDS011;23832;43.216;27.946;2022-08-19T02:11:44;14.07;;;7.13;;
38021;SDS011;23832;43.216;27.946;2022-08-19T02:13:46;14.23;;;6.97;;
38021;SDS011;23832;43.216;27.946;2022-08-19T02:15:49;12.68;;;6.53;;
38021;SDS011;23832;43.216;27.946;2022-08-19T02:17:51;12.23;;;6.55;;
38021;SDS011;23832;43.216;27.946;2022-08-19T02:19:53;14.13;;;7.03;;
38021;SDS011;23832;43.216;27.946;2022-08-19T02:21:55;12.73;;;6.68;;
38021;SDS011;23832;43.216;27.946;2022-08-19T02:23:57;14.57;;;7.20;;
38021;SDS011;23832;43.216;27.946;2022-08-19T02:25:59;15.15;;;7.07;;
38021;SDS011;23832;43.216;27.946;2022-08-19T02:28:02;16.92;;;9.18;;
38021;SDS011;23832;43.216;27.946;2022-08-19T02:30:05;17.88;;;10.00;;
38021;SDS011;23832;43.216;27.946;2022-08-19T02:32:10;20.73;;;11.00;;
38021;SDS011;23832;43.216;27.946;2022-08-19T02:34:12;17.52;;;9.30;;
38021;SDS011;23832;43.216;27.946;2022-08-19T02:36:14;18.55;;;10.80;;
38021;SDS011;23832;43.216;27.946;2022-08-19T02:38:17;20.70;;;11.55;;
38021;SDS011;23832;43.216;27.946;2022-08-19T02:40:26;20.48;;;12.00;;
38021;SDS011;23832;43.216;27.946;2022-08-19T02:42:29;16.63;;;9.57;;
38021;SDS011;23832;43.216;27.946;2022-08-19T02:44:33;15.65;;;8.38;;
38021;SDS011;23832;43.216;27.946;2022-08-19T02:46:34;17.30;;;8.40;;
38021;SDS011;23832;43.216;27.946;2022-08-19T02:48:37;16.33;;;8.10;;
38021;SDS011;23832;43.216;27.946;2022-08-19T02:50:39;16.23;;;8.02;;
38021;SDS011;23832;43.216;27.946;2022-08-19T02:52:41;15.23;;;7.88;;
38021;SDS011;23832;43.216;27.946;2022-08-19T02:54:43;15.48;;;8.25;;
38021;SDS011;23832;43.216;27.946;2022-08-19T02:56:46;16.92;;;8.15;;
38021;SDS011;23832;43.216;27.946;2022-08-19T02:58:48;15.85;;;8.35;;
38021;SDS011;23832;43.216;27.946;2022-08-19T03:00:52;14.85;;;7.72;;
38021;SDS011;23832;43.216;27.946;2022-08-19T03:02:56;19.27;;;8.57;;
38021;SDS011;23832;43.216;27.946;2022-08-19T03:04:58;14.85;;;7.95;;
38021;SDS011;23832;43.216;27.946;2022-08-19T03:07:01;16.70;;;9.00;;
38021;SDS011;23832;43.216;27.946;2022-08-19T03:09:03;15.13;;;8.27;;
38021;SDS011;23832;43.216;27.946;2022-08-19T03:11:05;16.95;;;8.80;;
38021;SDS011;23832;43.216;27.946;2022-08-19T03:13:07;16.75;;;7.93;;
38021;SDS011;23832;43.216;27.946;2022-08-19T03:15:09;19.15;;;9.38;;
38021;SDS011;23832;43.216;27.946;2022-08-19T03:17:13;15.93;;;8.48;;
38021;SDS011;23832;43.216;27.946;2022-08-19T03:19:16;18.27;;;9.65;;
38021;SDS011;23832;43.216;27.946;2022-08-19T03:21:21;18.52;;;9.70;;
38021;SDS011;23832;43.216;27.946;2022-08-19T03:23:25;15.75;;;9.38;;
38021;SDS011;23832;43.216;27.946;2022-08-19T03:25:27;17.98;;;9.10;;
38021;SDS011;23832;43.216;27.946;2022-08-19T03:27:29;16.85;;;9.45;;
38021;SDS011;23832;43.216;27.946;2022-08-19T03:29:31;16.95;;;9.68;;
38021;SDS011;23832;43.216;27.946;2022-08-19T03:31:33;15.95;;;9.32;;
38021;SDS011;23832;43.216;27.946;2022-08-19T03:33:37;23.70;;;9.68;;
38021;SDS011;23832;43.216;27.946;2022-08-19T03:35:40;17.42;;;9.73;;
38021;SDS011;23832;43.216;27.946;2022-08-19T03:37:42;19.30;;;10.88;;
38021;SDS011;23832;43.216;27.946;2022-08-19T03:39:44;18.40;;;10.20;;
38021;SDS011;23832;43.216;27.946;2022-08-19T03:41:47;18.88;;;9.55;;
38021;SDS011;23832;43.216;27.946;2022-08-19T03:43:50;19.90;;;10.18;;
38021;SDS011;23832;43.216;27.946;2022-08-19T03:45:59;18.60;;;9.23;;
38021;SDS011;23832;43.216;27.946;2022-08-19T03:48:02;19.02;;;9.77;;
38021;SDS011;23832;43.216;27.946;2022-08-19T03:50:07;18.50;;;9.77;;
38021;SDS011;23832;43.216;27.946;2022-08-19T03:52:10;15.80;;;9.02;;
38021;SDS011;23832;43.216;27.946;2022-08-19T03:54:14;18.75;;;9.43;;
38021;SDS011;23832;43.216;27.946;2022-08-19T03:56:18;16.63;;;8.95;;
38021;SDS011;23832;43.216;27.946;2022-08-19T03:58:20;17.83;;;9.02;;
38021;SDS011;23832;43.216;27.946;2022-08-19T04:00:22;20.60;;;10.70;;
38021;SDS011;23832;43.216;27.946;2022-08-19T04:02:24;20.17;;;11.15;;
38021;SDS011;23832;43.216;27.946;2022-08-19T04:04:26;19.60;;;9.55;;
38021;SDS011;23832;43.216;27.946;2022-08-19T04:06:31;19.42;;;9.25;;
38021;SDS011;23832;43.216;27.946;2022-08-19T04:08:34;17.50;;;9.90;;
38021;SDS011;23832;43.216;27.946;2022-08-19T04:10:36;16.52;;;8.35;;
38021;SDS011;23832;43.216;27.946;2022-08-19T04:12:40;16.95;;;8.77;;
38021;SDS011;23832;43.216;27.946;2022-08-19T04:14:42;18.90;;;10.40;;
38021;SDS011;23832;43.216;27.946;2022-08-19T04:16:45;16.20;;;9.27;;
38021;SDS011;23832;43.216;27.946;2022-08-19T04:18:49;15.30;;;8.23;;
38021;SDS011;23832;43.216;27.946;2022-08-19T04:20:51;16.10;;;8.63;;
38021;SDS011;23832;43.216;27.946;2022-08-19T04:22:57;15.07;;;8.32;;
38021;SDS011;23832;43.216;27.946;2022-08-19T04:24:59;17.20;;;8.15;;
38021;SDS011;23832;43.216;27.946;2022-08-19T04:27:02;16.67;;;8.55;;
38021;SDS011;23832;43.216;27.946;2022-08-19T04:29:06;17.70;;;8.57;;
38021;SDS011;23832;43.216;27.946;2022-08-19T04:31:12;15.90;;;8.25;;
38021;SDS011;23832;43.216;27.946;2022-08-19T04:33:16;16.27;;;8.18;;
38021;SDS011;23832;43.216;27.946;2022-08-19T04:35:21;17.15;;;8.73;;
38021;SDS011;23832;43.216;27.946;2022-08-19T04:37:23;18.45;;;8.98;;
38021;SDS011;23832;43.216;27.946;2022-08-19T04:39:29;16.55;;;8.23;;
38021;SDS011;23832;43.216;27.946;2022-08-19T04:41:49;18.15;;;8.70;;
38021;SDS011;23832;43.216;27.946;2022-08-19T04:44:08;17.17;;;8.57;;
38021;SDS011;23832;43.216;27.946;2022-08-19T04:48:20;16.60;;;9.27;;
38021;SDS011;23832;43.216;27.946;2022-08-19T04:50:26;16.63;;;9.02;;
38021;SDS011;23832;43.216;27.946;2022-08-19T04:52:28;18.27;;;9.38;;
38021;SDS011;23832;43.216;27.946;2022-08-19T04:54:33;15.45;;;8.38;;
38021;SDS011;23832;43.216;27.946;2022-08-19T04:56:35;17.00;;;9.02;;
38021;SDS011;23832;43.216;27.946;2022-08-19T04:58:37;18.10;;;9.25;;
38021;SDS011;23832;43.216;27.946;2022-08-19T05:00:42;18.45;;;9.75;;
38021;SDS011;23832;43.216;27.946;2022-08-19T05:02:44;19.58;;;9.45;;
38021;SDS011;23832;43.216;27.946;2022-08-19T05:04:47;20.52;;;10.32;;
38021;SDS011;23832;43.216;27.946;2022-08-19T05:06:49;18.33;;;9.70;;
38021;SDS011;23832;43.216;27.946;2022-08-19T05:08:52;17.88;;;9.90;;
38021;SDS011;23832;43.216;27.946;2022-08-19T05:10:56;17.88;;;9.13;;
38021;SDS011;23832;43.216;27.946;2022-08-19T05:12:58;17.10;;;8.90;;
38021;SDS011;23832;43.216;27.946;2022-08-19T05:15:01;19.65;;;9.45;;
38021;SDS011;23832;43.216;27.946;2022-08-19T05:17:05;15.70;;;8.70;;
38021;SDS011;23832;43.216;27.946;2022-08-19T05:19:07;15.80;;;8.65;;
38021;SDS011;23832;43.216;27.946;2022-08-19T05:23:46;20.33;;;10.02;;
38021;SDS011;23832;43.216;27.946;2022-08-19T05:25:47;18.10;;;9.90;;
38021;SDS011;23832;43.216;27.946;2022-08-19T05:27:51;19.67;;;9.77;;
38021;SDS011;23832;43.216;27.946;2022-08-19T05:29:53;22.48;;;11.25;;
38021;SDS011;23832;43.216;27.946;2022-08-19T05:31:55;18.52;;;9.02;;
38021;SDS011;23832;43.216;27.946;2022-08-19T05:33:57;21.67;;;8.40;;
38021;SDS011;23832;43.216;27.946;2022-08-19T05:36:00;15.20;;;7.07;;
38021;SDS011;23832;43.216;27.946;2022-08-19T05:38:04;18.17;;;7.40;;
38021;SDS011;23832;43.216;27.946;2022-08-19T05:40:07;18.30;;;8.07;;
38021;SDS011;23832;43.216;27.946;2022-08-19T05:42:11;19.05;;;7.30;;
38021;SDS011;23832;43.216;27.946;2022-08-19T05:44:16;15.52;;;7.57;;
38021;SDS011;23832;43.216;27.946;2022-08-19T05:46:18;15.45;;;7.43;;
38021;SDS011;23832;43.216;27.946;2022-08-19T05:48:22;14.68;;;7.00;;
38021;SDS011;23832;43.216;27.946;2022-08-19T05:50:24;13.30;;;6.50;;
38021;SDS011;23832;43.216;27.946;2022-08-19T05:52:26;16.15;;;6.70;;
38021;SDS011;23832;43.216;27.946;2022-08-19T05:54:29;14.73;;;7.35;;
38021;SDS011;23832;43.216;27.946;2022-08-19T05:56:31;16.17;;;7.10;;
38021;SDS011;23832;43.216;27.946;2022-08-19T05:58:36;14.50;;;6.75;;
38021;SDS011;23832;43.216;27.946;2022-08-19T06:00:40;14.60;;;6.95;;
38021;SDS011;23832;43.216;27.946;2022-08-19T06:02:44;14.15;;;6.82;;
38021;SDS011;23832;43.216;27.946;2022-08-19T06:04:46;16.85;;;6.97;;
38021;SDS011;23832;43.216;27.946;2022-08-19T06:06:50;14.02;;;6.47;;
38021;SDS011;23832;43.216;27.946;2022-08-19T06:08:53;14.05;;;6.38;;
38021;SDS011;23832;43.216;27.946;2022-08-19T06:10:56;17.35;;;6.10;;
38021;SDS011;23832;43.216;27.946;2022-08-19T06:12:58;13.35;;;6.05;;
38021;SDS011;23832;43.216;27.946;2022-08-19T06:15:00;14.65;;;6.78;;
38021;SDS011;23832;43.216;27.946;2022-08-19T06:17:05;14.38;;;6.35;;
38021;SDS011;23832;43.216;27.946;2022-08-19T06:19:08;13.55;;;6.45;;
38021;SDS011;23832;43.216;27.946;2022-08-19T06:21:12;13.07;;;6.30;;
38021;SDS011;23832;43.216;27.946;2022-08-19T06:23:14;13.13;;;6.47;;
38021;SDS011;23832;43.216;27.946;2022-08-19T06:25:16;15.25;;;6.38;;
38021;SDS011;23832;43.216;27.946;2022-08-19T06:27:19;14.13;;;5.90;;
38021;SDS011;23832;43.216;27.946;2022-08-19T06:29:22;13.70;;;6.18;;
38021;SDS011;23832;43.216;27.946;2022-08-19T06:31:27;14.77;;;6.63;;
38021;SDS011;23832;43.216;27.946;2022-08-19T06:33:33;14.27;;;6.47;;
38021;SDS011;23832;43.216;27.946;2022-08-19T06:35:38;14.50;;;6.05;;
38021;SDS011;23832;43.216;27.946;2022-08-19T06:37:41;15.90;;;6.40;;
38021;SDS011;23832;43.216;27.946;2022-08-19T06:39:46;14.38;;;6.32;;
38021;SDS011;23832;43.216;27.946;2022-08-19T06:41:49;14.57;;;7.53;;
38021;SDS011;23832;43.216;27.946;2022-08-19T06:43:53;13.43;;;6.50;;
38021;SDS011;23832;43.216;27.946;2022-08-19T06:45:56;14.13;;;7.10;;
38021;SDS011;23832;43.216;27.946;2022-08-19T06:48:01;14.05;;;6.43;;
38021;SDS011;23832;43.216;27.946;2022-08-19T06:50:07;17.83;;;6.68;;
38021;SDS011;23832;43.216;27.946;2022-08-19T06:52:11;14.32;;;6.38;;
38021;SDS011;23832;43.216;27.946;2022-08-19T06:54:14;15.35;;;6.03;;
38021;SDS011;23832;43.216;27.946;2022-08-19T06:56:18;12.60;;;6.22;;
38021;SDS011;23832;43.216;27.946;2022-08-19T06:58:22;10.98;;;5.15;;
38021;SDS011;23832;43.216;27.946;2022-08-19T07:00:24;13.02;;;6.38;;
38021;SDS011;23832;43.216;27.946;2022-08-19T07:02:26;12.45;;;5.80;;
38021;SDS011;23832;43.216;27.946;2022-08-19T07:04:30;13.85;;;5.78;;
38021;SDS011;23832;43.216;27.946;2022-08-19T07:06:35;12.73;;;6.07;;
38021;SDS011;23832;43.216;27.946;2022-08-19T07:08:38;16.02;;;6.20;;
38021;SDS011;23832;43.216;27.946;2022-08-19T07:10:42;15.32;;;6.22;;
38021;SDS011;23832;43.216;27.946;2022-08-19T07:12:45;14.40;;;5.70;;
38021;SDS011;23832;43.216;27.946;2022-08-19T07:14:50;15.48;;;6.53;;
38021;SDS011;23832;43.216;27.946;2022-08-19T07:16:54;13.55;;;5.90;;
38021;SDS011;23832;43.216;27.946;2022-08-19T07:18:57;15.00;;;6.13;;
38021;SDS011;23832;43.216;27.946;2022-08-19T07:21:03;12.98;;;5.47;;
38021;SDS011;23832;43.216;27.946;2022-08-19T07:23:07;14.02;;;5.70;;
38021;SDS011;23832;43.216;27.946;2022-08-19T07:25:10;12.52;;;5.90;;
38021;SDS011;23832;43.216;27.946;2022-08-19T07:27:13;15.30;;;6.05;;
38021;SDS011;23832;43.216;27.946;2022-08-19T07:29:16;12.90;;;6.20;;
38021;SDS011;23832;43.216;27.946;2022-08-19T07:31:21;12.85;;;6.03;;
38021;SDS011;23832;43.216;27.946;2022-08-19T07:33:24;17.35;;;5.78;;
38021;SDS011;23832;43.216;27.946;2022-08-19T07:35:27;13.98;;;5.95;;
38021;SDS011;23832;43.216;27.946;2022-08-19T07:37:29;17.23;;;5.57;;
38021;SDS011;23832;43.216;27.946;2022-08-19T07:39:33;12.82;;;5.45;;
38021;SDS011;23832;43.216;27.946;2022-08-19T07:41:37;12.35;;;5.95;;
38021;SDS011;23832;43.216;27.946;2022-08-19T07:43:39;12.82;;;6.00;;
38021;SDS011;23832;43.216;27.946;2022-08-19T07:45:43;12.10;;;5.03;;
38021;SDS011;23832;43.216;27.946;2022-08-19T07:47:47;13.80;;;5.95;;
38021;SDS011;23832;43.216;27.946;2022-08-19T07:49:49;12.60;;;6.03;;
38021;SDS011;23832;43.216;27.946;2022-08-19T07:51:52;12.07;;;5.75;;
38021;SDS011;23832;43.216;27.946;2022-08-19T07:53:56;12.20;;;5.75;;
38021;SDS011;23832;43.216;27.946;2022-08-19T07:56:00;12.55;;;5.57;;
38021;SDS011;23832;43.216;27.946;2022-08-19T07:58:04;12.48;;;5.53;;
38021;SDS011;23832;43.216;27.946;2022-08-19T08:00:07;11.32;;;5.45;;
38021;SDS011;23832;43.216;27.946;2022-08-19T08:02:09;14.45;;;5.38;;
38021;SDS011;23832;43.216;27.946;2022-08-19T08:04:11;12.48;;;5.90;;
38021;SDS011;23832;43.216;27.946;2022-08-19T08:06:31;13.82;;;5.78;;
38021;SDS011;23832;43.216;27.946;2022-08-19T08:08:51;16.58;;;5.45;;
38021;SDS011;23832;43.216;27.946;2022-08-19T08:11:12;13.52;;;5.43;;
38021;SDS011;23832;43.216;27.946;2022-08-19T08:13:14;13.13;;;6.00;;
38021;SDS011;23832;43.216;27.946;2022-08-19T08:15:16;14.52;;;5.65;;
38021;SDS011;23832;43.216;27.946;2022-08-19T08:17:19;10.57;;;5.07;;
38021;SDS011;23832;43.216;27.946;2022-08-19T08:19:23;14.98;;;5.65;;
38021;SDS011;23832;43.216;27.946;2022-08-19T08:21:26;10.23;;;4.75;;
38021;SDS011;23832;43.216;27.946;2022-08-19T08:23:28;11.07;;;4.72;;
38021;SDS011;23832;43.216;27.946;2022-08-19T08:25:31;13.38;;;4.82;;
38021;SDS011;23832;43.216;27.946;2022-08-19T08:27:37;12.45;;;4.75;;
38021;SDS011;23832;43.216;27.946;2022-08-19T08:29:41;13.38;;;5.22;;
38021;SDS011;23832;43.216;27.946;2022-08-19T08:31:44;11.93;;;4.68;;
38021;SDS011;23832;43.216;27.946;2022-08-19T08:33:47;10.90;;;4.63;;
38021;SDS011;23832;43.216;27.946;2022-08-19T08:35:49;12.15;;;5.25;;
38021;SDS011;23832;43.216;27.946;2022-08-19T08:37:53;12.30;;;5.15;;
38021;SDS011;23832;43.216;27.946;2022-08-19T08:39:58;13.18;;;5.07;;
38021;SDS011;23832;43.216;27.946;2022-08-19T08:42:01;13.50;;;5.10;;
38021;SDS011;23832;43.216;27.946;2022-08-19T08:44:13;11.20;;;4.70;;
38021;SDS011;23832;43.216;27.946;2022-08-19T08:46:21;14.27;;;5.28;;
38021;SDS011;23832;43.216;27.946;2022-08-19T08:48:35;13.77;;;5.43;;
38021;SDS011;23832;43.216;27.946;2022-08-19T08:50:44;11.93;;;5.07;;
38021;SDS011;23832;43.216;27.946;2022-08-19T08:52:50;12.90;;;4.97;;
38021;SDS011;23832;43.216;27.946;2022-08-19T08:54:57;12.68;;;4.93;;
38021;SDS011;23832;43.216;27.946;2022-08-19T08:57:00;16.27;;;5.25;;
38021;SDS011;23832;43.216;27.946;2022-08-19T08:59:06;12.05;;;5.20;;
38021;SDS011;23832;43.216;27.946;2022-08-19T09:01:15;14.38;;;5.13;;
38021;SDS011;23832;43.216;27.946;2022-08-19T09:03:17;14.52;;;4.55;;
38021;SDS011;23832;43.216;27.946;2022-08-19T09:05:22;12.70;;;5.07;;
38021;SDS011;23832;43.216;27.946;2022-08-19T09:07:30;13.48;;;5.07;;
38021;SDS011;23832;43.216;27.946;2022-08-19T09:09:45;13.27;;;4.70;;
38021;SDS011;23832;43.216;27.946;2022-08-19T09:11:54;11.82;;;4.88;;
38021;SDS011;23832;43.216;27.946;2022-08-19T09:14:06;14.70;;;5.70;;
38021;SDS011;23832;43.216;27.946;2022-08-19T09:16:18;9.02;;;4.22;;
38021;SDS011;23832;43.216;27.946;2022-08-19T09:18:29;13.18;;;4.88;;
38021;SDS011;23832;43.216;27.946;2022-08-19T09:20:40;13.00;;;5.45;;
38021;SDS011;23832;43.216;27.946;2022-08-19T09:22:42;13.52;;;5.05;;
38021;SDS011;23832;43.216;27.946;2022-08-19T09:24:45;13.85;;;5.03;;
38021;SDS011;23832;43.216;27.946;2022-08-19T09:26:47;12.50;;;4.53;;
38021;SDS011;23832;43.216;27.946;2022-08-19T09:28:49;11.20;;;4.72;;
38021;SDS011;23832;43.216;27.946;2022-08-19T09:30:53;11.70;;;5.00;;
38021;SDS011;23832;43.216;27.946;2022-08-19T09:32:56;15.75;;;5.47;;
38021;SDS011;23832;43.216;27.946;2022-08-19T09:34:58;14.15;;;5.28;;
38021;SDS011;23832;43.216;27.946;2022-08-19T09:37:01;12.27;;;4.53;;
38021;SDS011;23832;43.216;27.946;2022-08-19T09:39:03;13.18;;;4.80;;
38021;SDS011;23832;43.216;27.946;2022-08-19T09:41:07;13.35;;;4.60;;
38021;SDS011;23832;43.216;27.946;2022-08-19T09:43:12;11.95;;;4.28;;
38021;SDS011;23832;43.216;27.946;2022-08-19T09:45:15;9.13;;;4.47;;
38021;SDS011;23832;43.216;27.946;2022-08-19T09:47:20;12.50;;;5.75;;
38021;SDS011;23832;43.216;27.946;2022-08-19T09:49:23;11.50;;;4.50;;
38021;SDS011;23832;43.216;27.946;2022-08-19T09:51:25;12.23;;;4.82;;
38021;SDS011;23832;43.216;27.946;2022-08-19T09:53:29;17.73;;;5.03;;
38021;SDS011;23832;43.216;27.946;2022-08-19T09:55:31;11.25;;;4.72;;
38021;SDS011;23832;43.216;27.946;2022-08-19T09:57:33;14.10;;;4.40;;
38021;SDS011;23832;43.216;27.946;2022-08-19T09:59:36;10.32;;;4.72;;
38021;SDS011;23832;43.216;27.946;2022-08-19T10:01:38;16.77;;;5.50;;
38021;SDS011;23832;43.216;27.946;2022-08-19T10:03:40;10.20;;;4.63;;
38021;SDS011;23832;43.216;27.946;2022-08-19T10:05:43;11.27;;;4.78;;
38021;SDS011;23832;43.216;27.946;2022-08-19T10:07:50;11.07;;;4.85;;
38021;SDS011;23832;43.216;27.946;2022-08-19T10:09:52;8.68;;;4.22;;
38021;SDS011;23832;43.216;27.946;2022-08-19T10:11:54;12.73;;;4.68;;
38021;SDS011;23832;43.216;27.946;2022-08-19T10:13:56;12.85;;;4.55;;
38021;SDS011;23832;43.216;27.946;2022-08-19T10:16:02;12.27;;;4.95;;
38021;SDS011;23832;43.216;27.946;2022-08-19T10:18:06;11.73;;;4.80;;
38021;SDS011;23832;43.216;27.946;2022-08-19T10:20:08;11.93;;;5.22;;
38021;SDS011;23832;43.216;27.946;2022-08-19T10:22:12;9.63;;;4.43;;
38021;SDS011;23832;43.216;27.946;2022-08-19T10:24:15;11.63;;;4.60;;
38021;SDS011;23832;43.216;27.946;2022-08-19T10:26:18;12.35;;;4.50;;
38021;SDS011;23832;43.216;27.946;2022-08-19T10:28:21;11.68;;;4.38;;
38021;SDS011;23832;43.216;27.946;2022-08-19T10:30:24;12.20;;;4.88;;
38021;SDS011;23832;43.216;27.946;2022-08-19T10:32:26;10.95;;;4.40;;
38021;SDS011;23832;43.216;27.946;2022-08-19T10:34:29;12.90;;;4.97;;
38021;SDS011;23832;43.216;27.946;2022-08-19T10:36:33;12.18;;;4.50;;
38021;SDS011;23832;43.216;27.946;2022-08-19T10:38:38;8.68;;;4.47;;
38021;SDS011;23832;43.216;27.946;2022-08-19T10:40:40;9.75;;;4.65;;
38021;SDS011;23832;43.216;27.946;2022-08-19T10:42:42;13.27;;;4.78;;
38021;SDS011;23832;43.216;27.946;2022-08-19T10:44:44;13.98;;;5.55;;
38021;SDS011;23832;43.216;27.946;2022-08-19T10:46:48;12.38;;;5.30;;
38021;SDS011;23832;43.216;27.946;2022-08-19T10:48:50;13.30;;;4.97;;
38021;SDS011;23832;43.216;27.946;2022-08-19T10:50:52;10.32;;;5.07;;
38021;SDS011;23832;43.216;27.946;2022-08-19T10:53:12;9.90;;;4.57;;
38021;SDS011;23832;43.216;27.946;2022-08-19T10:55:15;11.02;;;5.50;;
38021;SDS011;23832;43.216;27.946;2022-08-19T10:57:44;11.93;;;5.53;;
38021;SDS011;23832;43.216;27.946;2022-08-19T10:59:48;11.32;;;5.60;;
38021;SDS011;23832;43.216;27.946;2022-08-19T11:01:50;11.70;;;5.97;;
38021;SDS011;23832;43.216;27.946;2022-08-19T11:03:52;11.55;;;6.05;;
38021;SDS011;23832;43.216;27.946;2022-08-19T11:05:57;12.55;;;6.40;;
38021;SDS011;23832;43.216;27.946;2022-08-19T11:08:00;15.20;;;6.50;;
38021;SDS011;23832;43.216;27.946;2022-08-19T11:10:02;12.68;;;6.28;;
38021;SDS011;23832;43.216;27.946;2022-08-19T11:12:09;12.75;;;6.72;;
38021;SDS011;23832;43.216;27.946;2022-08-19T11:14:13;13.73;;;6.50;;
38021;SDS011;23832;43.216;27.946;2022-08-19T11:16:17;12.43;;;6.20;;
38021;SDS011;23832;43.216;27.946;2022-08-19T11:18:19;15.07;;;6.10;;
38021;SDS011;23832;43.216;27.946;2022-08-19T11:20:21;13.60;;;6.68;;
38021;SDS011;23832;43.216;27.946;2022-08-19T11:22:25;14.23;;;6.60;;
38021;SDS011;23832;43.216;27.946;2022-08-19T11:24:27;15.43;;;7.10;;
38021;SDS011;23832;43.216;27.946;2022-08-19T11:26:30;15.60;;;7.38;;
38021;SDS011;23832;43.216;27.946;2022-08-19T11:28:33;15.70;;;7.97;;
38021;SDS011;23832;43.216;27.946;2022-08-19T11:30:36;14.32;;;6.63;;
38021;SDS011;23832;43.216;27.946;2022-08-19T11:32:38;14.73;;;7.95;;
38021;SDS011;23832;43.216;27.946;2022-08-19T11:34:41;14.35;;;7.13;;
38021;SDS011;23832;43.216;27.946;2022-08-19T11:36:43;15.73;;;7.50;;
38021;SDS011;23832;43.216;27.946;2022-08-19T11:38:49;12.52;;;7.10;;
38021;SDS011;23832;43.216;27.946;2022-08-19T11:40:56;15.82;;;8.07;;
38021;SDS011;23832;43.216;27.946;2022-08-19T11:42:58;13.48;;;7.38;;
38021;SDS011;23832;43.216;27.946;2022-08-19T11:45:02;14.48;;;7.95;;
38021;SDS011;23832;43.216;27.946;2022-08-19T11:47:05;14.60;;;7.10;;
38021;SDS011;23832;43.216;27.946;2022-08-19T11:49:07;13.40;;;7.00;;
38021;SDS011;23832;43.216;27.946;2022-08-19T11:51:11;15.82;;;7.68;;
38021;SDS011;23832;43.216;27.946;2022-08-19T11:53:14;19.48;;;7.72;;
38021;SDS011;23832;43.216;27.946;2022-08-19T11:55:18;15.57;;;7.30;;
38021;SDS011;23832;43.216;27.946;2022-08-19T11:57:20;15.07;;;7.03;;
38021;SDS011;23832;43.216;27.946;2022-08-19T11:59:22;14.45;;;7.20;;
38021;SDS011;23832;43.216;27.946;2022-08-19T12:01:28;15.20;;;7.72;;
38021;SDS011;23832;43.216;27.946;2022-08-19T12:03:31;14.77;;;7.50;;
38021;SDS011;23832;43.216;27.946;2022-08-19T12:05:36;14.55;;;7.80;;
38021;SDS011;23832;43.216;27.946;2022-08-19T12:07:38;15.52;;;7.97;;
38021;SDS011;23832;43.216;27.946;2022-08-19T12:09:41;16.02;;;8.02;;